createdAt,value
2018-03-07T00:02:57.000Z,41.1
2018-03-07T00:12:57.000Z,40.9
2018-03-07T00:22:57.000Z,41.2
2018-03-07T00:32:57.000Z,41.4
2018-03-07T00:42:57.000Z,42.2
2018-03-07T00:52:57.000Z,42
2018-03-07T01:02:57.000Z,43
2018-03-07T01:12:57.000Z,42.1
2018-03-07T01:22:57.000Z,42.1
2018-03-07T01:32:57.000Z,41.8
2018-03-07T01:42:57.000Z,42.4
2018-03-07T01:52:57.000Z,42.2
2018-03-07T02:02:58.000Z,42.4
2018-03-07T02:12:57.000Z,43
2018-03-07T02:22:57.000Z,43.4
2018-03-07T02:32:57.000Z,43.7
2018-03-07T02:42:57.000Z,43.6
2018-03-07T02:52:58.000Z,43.3
2018-03-07T03:02:58.000Z,43.1
2018-03-07T03:12:58.000Z,43.1
2018-03-07T03:22:58.000Z,42.8
2018-03-07T03:32:58.000Z,42.8
2018-03-07T03:42:58.000Z,43.2
2018-03-07T03:52:58.000Z,42.9
2018-03-07T04:02:58.000Z,42.6
2018-03-07T04:12:58.000Z,42.8
2018-03-07T04:22:58.000Z,42.6
2018-03-07T04:32:58.000Z,43
2018-03-07T04:42:58.000Z,42.8
2018-03-07T04:52:58.000Z,43.4
2018-03-07T05:02:58.000Z,42.4
2018-03-07T05:12:58.000Z,42.8
2018-03-07T05:22:58.000Z,42.2
2018-03-07T05:32:58.000Z,42
2018-03-07T05:42:58.000Z,42
2018-03-07T05:52:58.000Z,41.8
2018-03-07T06:02:58.000Z,41.7
2018-03-07T06:12:58.000Z,41.6
2018-03-07T06:22:58.000Z,41.5
2018-03-07T06:32:58.000Z,41.3
2018-03-07T06:42:58.000Z,41.7
2018-03-07T06:52:58.000Z,42.2
2018-03-07T07:02:58.000Z,46.6
2018-03-07T07:12:58.000Z,46.6
2018-03-07T07:22:58.000Z,46.7
2018-03-07T07:32:58.000Z,45.9
2018-03-07T07:42:58.000Z,45.5
2018-03-07T07:52:58.000Z,45.2
2018-03-07T08:02:58.000Z,45.1
2018-03-07T08:12:58.000Z,44.8
2018-03-07T08:22:58.000Z,44.5
2018-03-07T08:32:58.000Z,44.4
2018-03-07T08:42:58.000Z,43.8
2018-03-07T08:52:58.000Z,43.8
2018-03-07T09:02:59.000Z,43.8
2018-03-07T09:12:59.000Z,43.9
2018-03-07T09:22:59.000Z,44
2018-03-07T09:33:00.000Z,44
2018-03-07T09:42:58.000Z,43.9
2018-03-07T09:52:59.000Z,44
2018-03-07T10:02:58.000Z,43.4
2018-03-07T10:12:59.000Z,44.2
2018-03-07T10:22:59.000Z,45.3
2018-03-07T10:32:59.000Z,45.8
2018-03-07T10:42:59.000Z,46.3
2018-03-07T10:52:59.000Z,46.8
2018-03-07T11:03:01.000Z,46.7
2018-03-07T11:12:59.000Z,47.1
2018-03-07T11:22:59.000Z,47.1
2018-03-07T11:32:59.000Z,47
2018-03-07T11:42:59.000Z,47.1
2018-03-07T11:52:59.000Z,47
2018-03-07T12:02:59.000Z,47.1
2018-03-07T12:12:59.000Z,47
2018-03-07T12:22:59.000Z,47
2018-03-07T12:32:59.000Z,47.2
2018-03-07T12:42:59.000Z,47.2
2018-03-07T12:52:59.000Z,47.1
2018-03-07T13:02:59.000Z,47.1
2018-03-07T13:12:59.000Z,47.2
2018-03-07T13:22:59.000Z,46.9
2018-03-07T13:32:59.000Z,46.9
2018-03-07T13:42:59.000Z,47.2
2018-03-07T13:52:59.000Z,46.9
2018-03-07T14:02:59.000Z,47
2018-03-07T14:12:59.000Z,46.6
2018-03-07T14:22:59.000Z,46.7
2018-03-07T14:32:59.000Z,46.6
2018-03-07T14:42:59.000Z,46.2
2018-03-07T14:52:59.000Z,46.2
2018-03-07T15:02:59.000Z,47.5
2018-03-07T15:12:59.000Z,48.3
2018-03-07T15:22:59.000Z,48.9
2018-03-07T15:32:59.000Z,49.7
2018-03-07T15:42:59.000Z,50
2018-03-07T15:52:59.000Z,50.1
2018-03-07T16:02:59.000Z,49.9
2018-03-07T16:13:00.000Z,49.7
2018-03-07T16:22:59.000Z,49.6
2018-03-07T16:32:59.000Z,49.5
2018-03-07T16:42:59.000Z,49.4
2018-03-07T16:53:00.000Z,49.3
2018-03-07T17:03:00.000Z,49.1
2018-03-07T17:13:00.000Z,49
2018-03-07T17:23:00.000Z,48.9
2018-03-07T17:33:04.000Z,48.8
2018-03-07T17:43:00.000Z,48.1
2018-03-07T17:53:00.000Z,48.6
2018-03-07T18:03:00.000Z,48.7
2018-03-07T18:13:03.000Z,48.5
2018-03-07T18:23:00.000Z,48.3
2018-03-07T18:33:00.000Z,48.2
2018-03-07T18:43:01.000Z,48.2
2018-03-07T18:53:00.000Z,48.1
2018-03-07T19:03:00.000Z,47.9
2018-03-07T19:13:00.000Z,47.8
2018-03-07T19:23:00.000Z,47.7
2018-03-07T19:33:00.000Z,47.6
2018-03-07T19:43:00.000Z,47.4
2018-03-07T19:53:00.000Z,47.4
2018-03-07T20:03:00.000Z,47.2
2018-03-07T20:13:00.000Z,47
2018-03-07T20:23:01.000Z,47
2018-03-07T20:33:00.000Z,46.9
2018-03-07T20:43:00.000Z,46.8
2018-03-07T20:53:01.000Z,46.8
2018-03-07T21:03:00.000Z,46.6
2018-03-07T21:13:00.000Z,46.6
2018-03-07T21:23:00.000Z,46.5
2018-03-07T21:33:00.000Z,46.5
2018-03-07T21:43:00.000Z,46.3
2018-03-07T21:53:00.000Z,46.2
2018-03-07T22:03:00.000Z,46.1
2018-03-07T22:13:00.000Z,45.9
2018-03-07T22:23:00.000Z,46.1
2018-03-07T22:33:00.000Z,46.1
2018-03-07T22:43:00.000Z,46.4
2018-03-07T22:53:00.000Z,46.4
2018-03-07T23:03:01.000Z,40.6
2018-03-07T23:23:00.000Z,40.9
2018-03-07T23:33:00.000Z,42.1
2018-03-07T23:43:01.000Z,42.6
2018-03-07T23:53:01.000Z,42.7
